Time;durP1;ratioP1;P1;durP2;ratioP2;P2;SDS_P1;SDS_P2;PMS_P1;PMS_P2;Temp;Humidity;BMP_temperature;BMP_pressure;BME280_temperature;BME280_humidity;BME280_pressure;Samples;Min_cycle;Max_cycle;Signal;HPM_P1;HPM_P2
2021/06/09 00:01:46;;;;;;;5.45;2.10;;;17.90;70.20;;;;;;5029453;28;20163;-69
2021/06/09 00:04:12;;;;;;;4.13;2.17;;;17.90;70.40;;;;;;5028481;28;20037;-68
2021/06/09 00:06:39;;;;;;;5.95;2.65;;;17.90;69.80;;;;;;5029634;28;20030;-68
2021/06/09 00:09:05;;;;;;;2.75;2.05;;;17.90;70.10;;;;;;5029264;28;20041;-68
2021/06/09 00:11:32;;;;;;;3.60;2.13;;;18.00;70.10;;;;;;5029684;28;20021;-68
2021/06/09 00:13:57;;;;;;;6.78;2.08;;;18.00;69.30;;;;;;5027921;28;20025;-68
2021/06/09 00:16:23;;;;;;;5.60;1.95;;;18.00;69.40;;;;;;5028303;28;20056;-68
2021/06/09 00:18:49;;;;;;;3.15;1.98;;;18.00;69.30;;;;;;5028243;28;20402;-69
2021/06/09 00:21:17;;;;;;;3.45;1.90;;;18.00;69.10;;;;;;5029091;28;20055;-68
2021/06/09 00:23:43;;;;;;;2.95;2.30;;;18.00;69.10;;;;;;5029221;28;20025;-68
2021/06/09 00:26:09;;;;;;;4.65;2.67;;;18.00;69.10;;;;;;5029560;28;20037;-68
2021/06/09 00:28:36;;;;;;;2.45;2.08;;;18.00;69.20;;;;;;5029265;28;20030;-68
2021/06/09 00:31:07;;;;;;;3.90;2.50;;;18.00;69.30;;;;;;5029413;28;20021;-67
2021/06/09 00:33:33;;;;;;;3.10;2.25;;;17.90;69.40;;;;;;5028985;28;20022;-69
2021/06/09 00:35:59;;;;;;;3.35;2.40;;;17.90;69.00;;;;;;5029075;28;20069;-71
2021/06/09 00:38:29;;;;;;;3.35;2.03;;;17.90;69.00;;;;;;5028478;28;20034;-68
2021/06/09 00:40:58;;;;;;;2.92;2.22;;;17.90;69.10;;;;;;5029170;28;20099;-69
2021/06/09 00:43:27;;;;;;;4.80;2.45;;;17.90;69.20;;;;;;5028514;28;20022;-69
2021/06/09 00:45:56;;;;;;;6.18;2.08;;;17.90;69.40;;;;;;5029119;28;20040;-69
2021/06/09 00:48:28;;;;;;;5.10;2.70;;;17.90;69.80;;;;;;5028915;28;20459;-69
2021/06/09 00:50:54;;;;;;;4.95;2.55;;;17.90;70.00;;;;;;5028464;28;20029;-67
2021/06/09 00:53:38;;;;;;;4.30;2.50;;;17.90;70.00;;;;;;5028443;28;20022;-68
2021/06/09 00:56:08;;;;;;;7.82;2.40;;;17.90;70.00;;;;;;5028927;28;20036;-68
2021/06/09 00:58:35;;;;;;;13.85;2.50;;;18.00;70.20;;;;;;5028064;28;20026;-69
2021/06/09 01:01:01;;;;;;;6.65;2.22;;;18.00;70.10;;;;;;5028658;28;20032;-69
2021/06/09 01:03:27;;;;;;;3.58;2.25;;;18.00;69.90;;;;;;5028483;28;20026;-69
2021/06/09 01:05:53;;;;;;;4.10;2.40;;;18.00;69.80;;;;;;5028344;28;20038;-68
2021/06/09 01:08:20;;;;;;;2.95;1.90;;;18.00;69.60;;;;;;5028275;28;20104;-68
2021/06/09 01:10:50;;;;;;;3.47;2.22;;;18.10;69.70;;;;;;5028659;28;20084;-68
2021/06/09 01:13:21;;;;;;;5.18;1.92;;;18.10;69.90;;;;;;5026935;28;20104;-68
2021/06/09 01:15:46;;;;;;;6.28;2.30;;;18.20;69.90;;;;;;5028237;28;20028;-68
2021/06/09 01:18:12;;;;;;;7.30;2.17;;;18.20;69.40;;;;;;5028352;28;20398;-68
2021/06/09 01:20:38;;;;;;;11.55;2.75;;;18.30;68.80;;;;;;5028158;28;20580;-68
2021/06/09 01:23:05;;;;;;;8.27;3.20;;;18.40;68.40;;;;;;5026598;28;20373;-69
2021/06/09 01:25:32;;;;;;;2.92;2.22;;;18.50;67.90;;;;;;5028142;28;20041;-68
2021/06/09 01:27:58;;;;;;;3.78;2.25;;;18.50;67.80;;;;;;5027917;28;20018;-68
2021/06/09 01:30:23;;;;;;;3.47;2.22;;;18.60;67.30;;;;;;5026715;28;20390;-68
2021/06/09 01:32:51;;;;;;;3.17;2.55;;;18.70;67.20;;;;;;5028175;28;20029;-69
2021/06/09 01:35:17;;;;;;;5.78;2.55;;;18.80;67.40;;;;;;5027509;28;20068;-68
2021/06/09 01:37:43;;;;;;;4.03;2.38;;;18.80;67.60;;;;;;5027658;28;20056;-68
2021/06/09 01:40:12;;;;;;;3.42;2.47;;;18.90;67.30;;;;;;5027455;28;20118;-68
2021/06/09 01:42:39;;;;;;;3.63;2.50;;;18.90;67.10;;;;;;5027960;28;20052;-68
2021/06/09 01:45:12;;;;;;;7.57;2.25;;;18.90;67.40;;;;;;5027821;28;20545;-69
2021/06/09 01:47:39;;;;;;;8.40;2.50;;;19.00;67.00;;;;;;5026362;28;20179;-69
2021/06/09 01:50:08;;;;;;;5.57;2.85;;;19.00;66.90;;;;;;5028050;28;20032;-68
2021/06/09 01:52:34;;;;;;;3.22;2.10;;;19.10;67.10;;;;;;5026857;28;20489;-69
2021/06/09 01:55:01;;;;;;;3.25;2.08;;;19.10;67.20;;;;;;5027713;28;20080;-68
2021/06/09 01:57:26;;;;;;;6.03;2.08;;;19.10;67.10;;;;;;5027144;28;20032;-68
2021/06/09 01:59:52;;;;;;;2.97;2.40;;;19.10;67.00;;;;;;5026404;28;20037;-68
2021/06/09 02:02:18;;;;;;;7.13;2.55;;;19.20;67.10;;;;;;5027521;28;20022;-68
2021/06/09 02:04:44;;;;;;;5.78;2.67;;;19.20;67.20;;;;;;5027348;28;20041;-69
2021/06/09 02:07:10;;;;;;;11.07;2.55;;;19.20;67.20;;;;;;5026725;28;20491;-67
2021/06/09 02:09:37;;;;;;;4.88;2.95;;;19.20;67.30;;;;;;5027267;28;20099;-68
2021/06/09 02:12:03;;;;;;;2.83;2.03;;;19.20;67.20;;;;;;5027111;28;20503;-68
2021/06/09 02:14:29;;;;;;;2.90;2.10;;;19.20;67.10;;;;;;5027486;28;20175;-68
2021/06/09 02:16:55;;;;;;;4.75;2.47;;;19.20;67.50;;;;;;5027107;28;20124;-68
2021/06/09 02:19:23;;;;;;;3.63;2.10;;;19.20;67.60;;;;;;5027054;28;20033;-68
2021/06/09 02:21:49;;;;;;;3.47;2.42;;;19.20;67.40;;;;;;5025966;28;20030;-67
2021/06/09 02:24:15;;;;;;;4.15;2.03;;;19.20;67.30;;;;;;5026487;28;20090;-69
2021/06/09 02:26:41;;;;;;;3.83;2.08;;;19.10;67.50;;;;;;5026917;28;20098;-69
2021/06/09 02:29:09;;;;;;;4.07;2.40;;;19.20;68.10;;;;;;5027029;28;20493;-69
2021/06/09 02:31:49;;;;;;;4.60;2.40;;;19.10;68.10;;;;;;5027043;28;20191;-69
2021/06/09 02:34:20;;;;;;;8.35;2.60;;;19.10;68.20;;;;;;5027002;28;20053;-68
2021/06/09 02:36:50;;;;;;;3.95;2.08;;;19.10;68.30;;;;;;5026148;28;20029;-68
2021/06/09 02:39:18;;;;;;;5.05;2.58;;;19.00;68.40;;;;;;5025480;28;20028;-68
2021/06/09 02:41:44;;;;;;;5.97;2.90;;;18.90;68.50;;;;;;5026402;28;20029;-68
2021/06/09 02:44:09;;;;;;;3.70;2.80;;;18.90;68.00;;;;;;5026894;28;20585;-68
2021/06/09 02:46:46;;;;;;;6.63;2.63;;;18.90;68.20;;;;;;5025552;28;20505;-68
2021/06/09 02:49:15;;;;;;;3.75;2.42;;;18.90;67.50;;;;;;5025440;28;20024;-68
2021/06/09 02:51:44;;;;;;;3.25;2.53;;;19.00;66.80;;;;;;5024823;28;20461;-68
2021/06/09 02:54:28;;;;;;;3.15;2.20;;;19.00;67.20;;;;;;5025484;28;20439;-68
2021/06/09 02:57:08;;;;;;;6.25;2.95;;;19.00;67.70;;;;;;5026290;28;20030;-68
2021/06/09 02:59:40;;;;;;;3.80;2.15;;;19.00;68.30;;;;;;5026516;28;20502;-68
2021/06/09 03:02:21;;;;;;;5.05;2.33;;;19.00;68.50;;;;;;5026079;28;20032;-69
2021/06/09 03:04:54;;;;;;;7.18;2.97;;;19.00;68.30;;;;;;5026004;28;20079;-68
2021/06/09 03:07:38;;;;;;;12.43;3.03;;;19.00;68.20;;;;;;5025870;28;20029;-68
2021/06/09 03:10:19;;;;;;;6.68;2.95;;;19.00;67.90;;;;;;5025979;28;20037;-68
2021/06/09 03:12:51;;;;;;;6.03;2.42;;;19.00;68.10;;;;;;5026371;28;20021;-68
2021/06/09 03:15:32;;;;;;;4.43;2.55;;;19.00;68.10;;;;;;5025995;28;20724;-69
2021/06/09 03:18:05;;;;;;;8.32;2.35;;;19.00;68.10;;;;;;5026430;28;20044;-68
2021/06/09 03:21:00;;;;;;;5.40;2.60;;;18.90;68.20;;;;;;5026136;28;20032;-68
2021/06/09 03:23:35;;;;;;;9.30;3.00;;;18.90;67.80;;;;;;5025625;28;20379;-68
2021/06/09 03:26:12;;;;;;;8.48;2.67;;;18.90;67.00;;;;;;5025005;28;20521;-68
2021/06/09 03:28:44;;;;;;;5.55;2.47;;;18.90;66.40;;;;;;5025033;28;20030;-68
2021/06/09 03:31:15;;;;;;;4.82;2.90;;;18.90;66.20;;;;;;5025780;28;20726;-67
2021/06/09 03:33:45;;;;;;;5.88;2.63;;;18.90;66.40;;;;;;5026258;28;20109;-68
2021/06/09 03:36:19;;;;;;;8.77;2.95;;;18.90;66.80;;;;;;5025453;28;20107;-68
2021/06/09 03:38:53;;;;;;;8.18;2.45;;;18.90;66.90;;;;;;5024904;28;20371;-68
2021/06/09 03:41:22;;;;;;;5.57;2.55;;;18.90;67.00;;;;;;5024733;28;20033;-69
2021/06/09 03:43:52;;;;;;;12.50;4.60;;;18.80;67.30;;;;;;5026072;28;20490;-67
2021/06/09 03:46:21;;;;;;;10.95;2.65;;;18.80;68.00;;;;;;5026008;28;20032;-68
2021/06/09 03:48:48;;;;;;;6.00;2.63;;;18.80;68.10;;;;;;5025630;28;20033;-68
2021/06/09 03:51:15;;;;;;;7.95;2.40;;;18.80;69.10;;;;;;5025516;28;20474;-67
2021/06/09 03:53:41;;;;;;;6.30;2.28;;;18.70;69.20;;;;;;5025407;28;20025;-67
2021/06/09 03:56:10;;;;;;;8.15;2.97;;;18.70;69.90;;;;;;5025948;28;20057;-68
2021/06/09 03:58:37;;;;;;;6.90;2.13;;;18.70;70.50;;;;;;5025649;28;20083;-67
2021/06/09 04:01:04;;;;;;;5.35;2.40;;;18.70;70.10;;;;;;5025267;28;20091;-65
2021/06/09 04:03:32;;;;;;;3.85;2.17;;;18.80;69.30;;;;;;5024541;28;20120;-66
2021/06/09 04:06:00;;;;;;;9.13;3.08;;;18.80;68.90;;;;;;5024197;28;20029;-66
2021/06/09 04:08:27;;;;;;;9.68;2.60;;;18.80;69.60;;;;;;5024562;28;20192;-66
2021/06/09 04:10:56;;;;;;;9.63;2.72;;;18.90;69.90;;;;;;5025496;28;20088;-66
2021/06/09 04:13:22;;;;;;;10.25;2.60;;;19.00;70.50;;;;;;5025544;28;20518;-66
2021/06/09 04:15:50;;;;;;;6.93;2.28;;;19.10;69.60;;;;;;5025713;28;20075;-67
2021/06/09 04:18:17;;;;;;;4.65;2.35;;;19.30;69.30;;;;;;5025487;28;20026;-67
2021/06/09 04:20:46;;;;;;;8.02;2.15;;;19.40;69.00;;;;;;5025632;28;20675;-67
2021/06/09 04:23:12;;;;;;;7.47;2.33;;;19.60;67.90;;;;;;5025671;28;20122;-67
2021/06/09 04:25:38;;;;;;;8.63;2.30;;;19.70;67.80;;;;;;5025753;28;20041;-67
2021/06/09 04:28:06;;;;;;;5.30;2.15;;;19.80;67.60;;;;;;5025286;28;20033;-66
2021/06/09 04:30:32;;;;;;;4.63;2.20;;;20.00;66.60;;;;;;5024252;28;20064;-68
2021/06/09 04:33:02;;;;;;;6.55;3.13;;;20.20;65.90;;;;;;5025443;28;20068;-66
2021/06/09 04:35:37;;;;;;;6.63;2.70;;;20.40;65.20;;;;;;5028115;28;20116;-67
2021/06/09 04:38:04;;;;;;;8.18;2.35;;;20.50;63.90;;;;;;5027439;28;20087;-65
2021/06/09 04:40:30;;;;;;;10.80;2.65;;;20.60;64.00;;;;;;5027722;28;20022;-67
2021/06/09 04:42:57;;;;;;;7.63;2.88;;;20.60;65.30;;;;;;5027313;28;20544;-68
2021/06/09 04:45:25;;;;;;;13.98;3.15;;;20.60;64.40;;;;;;5029000;28;20052;-68
2021/06/09 04:47:52;;;;;;;5.07;2.85;;;20.70;65.50;;;;;;5028632;28;20021;-68
2021/06/09 04:50:20;;;;;;;7.78;2.60;;;20.70;65.40;;;;;;5027076;28;20064;-66
2021/06/09 04:52:47;;;;;;;6.90;2.50;;;20.90;67.30;;;;;;5028559;28;20033;-67
2021/06/09 04:55:13;;;;;;;13.88;2.45;;;21.10;66.40;;;;;;5028768;28;20021;-67
2021/06/09 04:57:39;;;;;;;5.60;2.60;;;21.30;67.10;;;;;;5028930;28;20061;-67
2021/06/09 05:00:08;;;;;;;5.57;2.83;;;21.60;66.40;;;;;;5028017;28;20029;-68
2021/06/09 05:02:34;;;;;;;14.02;3.30;;;21.90;65.00;;;;;;5027872;28;20029;-67
2021/06/09 05:05:00;;;;;;;6.82;3.13;;;22.20;64.00;;;;;;5027564;28;20045;-68
2021/06/09 05:07:26;;;;;;;9.52;3.03;;;22.40;63.30;;;;;;5027826;28;20032;-67
2021/06/09 05:09:53;;;;;;;6.20;3.05;;;22.60;62.60;;;;;;5027649;28;20022;-67
2021/06/09 05:12:26;;;;;;;3.45;2.13;;;22.80;61.60;;;;;;5028456;28;20057;-66
2021/06/09 05:15:06;;;;;;;5.57;2.25;;;23.00;60.00;;;;;;5028029;28;20121;-68
2021/06/09 05:17:46;;;;;;;6.15;2.60;;;23.10;59.30;;;;;;5027274;28;20033;-67
2021/06/09 05:20:34;;;;;;;4.57;2.83;;;23.20;60.90;;;;;;5027503;28;20052;-67
2021/06/09 05:23:15;;;;;;;16.20;3.22;;;23.20;61.70;;;;;;5028001;28;20038;-68
2021/06/09 05:25:43;;;;;;;9.18;2.72;;;23.20;63.10;;;;;;5027739;28;20774;-68
2021/06/09 05:28:12;;;;;;;6.50;2.38;;;23.10;63.40;;;;;;5028329;28;20029;-68
2021/06/09 05:30:39;;;;;;;4.63;2.65;;;23.20;63.30;;;;;;5026674;28;20053;-67
2021/06/09 05:33:06;;;;;;;11.65;2.38;;;23.20;64.10;;;;;;5026945;28;20275;-67
2021/06/09 05:35:33;;;;;;;13.50;2.80;;;23.30;64.30;;;;;;5027233;28;20132;-67
2021/06/09 05:38:00;;;;;;;6.28;2.55;;;23.50;64.10;;;;;;5028020;28;20038;-68
2021/06/09 05:40:26;;;;;;;13.93;4.15;;;23.60;63.60;;;;;;5028066;28;20025;-66
2021/06/09 05:42:51;;;;;;;6.18;2.65;;;23.80;62.50;;;;;;5027474;28;20525;-67
2021/06/09 05:45:33;;;;;;;7.47;2.33;;;23.90;61.30;;;;;;5026563;28;20045;-67
2021/06/09 05:47:59;;;;;;;8.82;2.33;;;24.10;60.60;;;;;;5027749;28;20048;-66
2021/06/09 05:50:27;;;;;;;3.90;2.45;;;24.20;59.30;;;;;;5026988;28;20128;-65
2021/06/09 05:52:57;;;;;;;6.97;2.90;;;24.30;59.40;;;;;;5027884;28;20025;-66
2021/06/09 05:55:27;;;;;;;12.23;3.33;;;24.40;58.00;;;;;;5027686;28;20037;-66
2021/06/09 05:57:54;;;;;;;13.50;5.68;;;24.40;59.70;;;;;;5027713;28;20029;-67
2021/06/09 06:00:24;;;;;;;8.88;3.78;;;24.40;59.70;;;;;;5027960;28;20033;-66
2021/06/09 06:02:50;;;;;;;6.80;3.58;;;24.50;57.40;;;;;;5027839;28;20036;-66
2021/06/09 06:05:18;;;;;;;10.43;3.08;;;24.50;58.80;;;;;;5026727;28;20037;-66
2021/06/09 06:07:44;;;;;;;7.90;3.05;;;24.50;57.40;;;;;;5027041;28;20402;-65
2021/06/09 06:10:11;;;;;;;9.52;3.08;;;24.60;56.70;;;;;;5027140;28;20563;-65
2021/06/09 06:12:40;;;;;;;5.78;3.10;;;24.80;55.10;;;;;;5025183;28;20029;-66
2021/06/09 06:15:09;;;;;;;11.05;2.85;;;25.00;55.40;;;;;;5027313;28;20108;-66
2021/06/09 06:17:39;;;;;;;13.63;2.75;;;25.50;55.10;;;;;;5026869;28;20037;-67
2021/06/09 06:20:12;;;;;;;15.63;2.85;;;26.60;52.60;;;;;;5025357;28;20067;-67
2021/06/09 06:22:38;;;;;;;13.32;2.92;;;28.20;48.60;;;;;;5027253;28;20049;-67
2021/06/09 06:25:04;;;;;;;14.15;3.55;;;30.00;44.80;;;;;;5026618;28;20494;-67
2021/06/09 06:27:30;;;;;;;4.75;2.40;;;31.40;43.70;;;;;;5027122;28;20181;-66
2021/06/09 06:29:56;;;;;;;10.45;2.45;;;32.50;33.60;;;;;;5026516;28;20041;-68
2021/06/09 06:32:23;;;;;;;6.45;2.15;;;32.30;33.70;;;;;;5027020;28;20025;-67
2021/06/09 06:34:51;;;;;;;6.72;2.03;;;31.60;33.80;;;;;;5026093;28;20319;-67
2021/06/09 06:37:23;;;;;;;12.15;2.95;;;31.20;35.30;;;;;;5026794;28;20025;-68
2021/06/09 06:39:49;;;;;;;7.53;2.80;;;31.20;36.50;;;;;;5026884;28;20033;-66
2021/06/09 06:42:16;;;;;;;7.13;2.72;;;31.40;37.70;;;;;;5025696;28;20025;-68
2021/06/09 06:44:42;;;;;;;2.10;1.42;;;32.70;33.00;;;;;;5026484;28;20383;-67
2021/06/09 06:47:09;;;;;;;2.42;1.73;;;33.80;27.60;;;;;;5026843;28;20037;-67
2021/06/09 06:49:36;;;;;;;11.25;3.42;;;33.00;27.10;;;;;;5026598;28;20044;-67
2021/06/09 06:52:03;;;;;;;6.07;2.13;;;32.00;28.30;;;;;;5026804;28;20109;-67
2021/06/09 06:54:29;;;;;;;5.47;2.22;;;32.00;28.90;;;;;;5025241;28;20148;-68
2021/06/09 06:56:56;;;;;;;9.13;2.20;;;32.60;28.60;;;;;;5025954;28;20128;-68
2021/06/09 06:59:27;;;;;;;9.07;1.45;;;33.40;27.60;;;;;;5026211;28;20025;-67
2021/06/09 07:01:53;;;;;;;5.80;2.10;;;33.90;27.00;;;;;;5026604;28;20120;-68
2021/06/09 07:04:20;;;;;;;2.65;1.65;;;34.10;26.90;;;;;;5026236;28;20116;-68
2021/06/09 07:06:47;;;;;;;4.25;1.52;;;34.30;26.30;;;;;;5026021;28;20026;-67
2021/06/09 07:09:15;;;;;;;5.00;1.83;;;34.40;25.80;;;;;;5026303;28;20033;-67
2021/06/09 07:11:47;;;;;;;8.98;1.92;;;34.30;25.50;;;;;;5026696;28;20037;-68
2021/06/09 07:14:14;;;;;;;5.97;1.63;;;34.50;25.40;;;;;;5026336;28;20436;-67
2021/06/09 07:16:43;;;;;;;3.35;1.80;;;34.10;26.70;;;;;;5026331;28;20025;-68
2021/06/09 07:19:10;;;;;;;5.38;1.58;;;34.50;25.30;;;;;;5025756;28;20108;-67
2021/06/09 07:21:38;;;;;;;4.45;1.98;;;34.40;25.80;;;;;;5026100;28;20627;-67
2021/06/09 07:24:04;;;;;;;5.10;1.80;;;34.30;26.00;;;;;;5026404;28;20083;-67
2021/06/09 07:26:36;;;;;;;5.60;1.52;;;33.70;26.10;;;;;;5025929;28;20040;-66
2021/06/09 07:29:04;;;;;;;5.30;1.45;;;33.60;25.80;;;;;;5025832;28;20402;-67
2021/06/09 07:31:32;;;;;;;2.55;1.45;;;33.00;26.70;;;;;;5026307;28;20083;-66
2021/06/09 07:33:58;;;;;;;3.80;1.60;;;32.30;27.00;;;;;;5025474;28;20033;-67
2021/06/09 07:36:47;;;;;;;2.40;1.45;;;31.70;28.00;;;;;;5026156;28;20624;-67
2021/06/09 07:39:35;;;;;;;5.78;1.55;;;31.90;28.60;;;;;;5024320;28;20033;-67
2021/06/09 07:42:09;;;;;;;4.22;1.27;;;32.70;28.30;;;;;;5025686;28;20798;-69
2021/06/09 07:44:44;;;;;;;4.07;2.00;;;33.50;26.20;;;;;;5026106;28;20040;-67
2021/06/09 07:47:12;;;;;;;4.40;1.40;;;33.90;26.70;;;;;;5025375;28;20041;-67
2021/06/09 07:49:38;;;;;;;5.95;1.50;;;34.20;25.90;;;;;;5024116;28;20780;-68
2021/06/09 07:52:05;;;;;;;8.52;1.95;;;34.30;25.90;;;;;;5026025;28;20025;-67
2021/06/09 07:54:33;;;;;;;2.75;1.33;;;33.70;26.10;;;;;;5025787;28;20144;-67
2021/06/09 07:57:04;;;;;;;9.25;1.65;;;32.60;27.30;;;;;;5024437;28;20088;-67
2021/06/09 07:59:30;;;;;;;4.28;2.03;;;31.90;28.40;;;;;;5024222;28;20091;-68
2021/06/09 08:01:56;;;;;;;4.75;1.88;;;31.90;28.70;;;;;;5025884;28;20029;-67
2021/06/09 08:04:22;;;;;;;2.95;1.60;;;32.20;28.20;;;;;;5024945;28;20421;-67
2021/06/09 08:06:48;;;;;;;3.58;1.80;;;32.80;27.10;;;;;;5024680;28;20084;-67
2021/06/09 08:09:15;;;;;;;4.70;2.15;;;33.20;27.00;;;;;;5027244;28;20041;-67
2021/06/09 08:11:42;;;;;;;2.42;1.40;;;33.50;26.80;;;;;;5029701;28;20029;-68
2021/06/09 08:14:08;;;;;;;7.05;1.30;;;33.20;26.60;;;;;;5029218;28;20030;-67
2021/06/09 08:16:35;;;;;;;7.28;1.75;;;33.10;26.80;;;;;;5029757;28;20499;-67
2021/06/09 08:19:06;;;;;;;6.15;1.10;;;32.80;26.30;;;;;;5027550;28;20505;-67
2021/06/09 08:21:32;;;;;;;7.82;1.92;;;32.10;26.60;;;;;;5029514;28;20042;-67
2021/06/09 08:23:58;;;;;;;2.67;1.52;;;31.70;27.70;;;;;;5029225;28;20038;-67
2021/06/09 08:26:24;;;;;;;3.40;1.70;;;31.30;27.40;;;;;;5029349;28;20044;-67
2021/06/09 08:28:51;;;;;;;3.75;1.42;;;30.90;27.90;;;;;;5028109;28;20053;-67
2021/06/09 08:31:20;;;;;;;7.90;1.90;;;30.50;27.50;;;;;;5029113;28;20033;-67
2021/06/09 08:33:48;;;;;;;3.03;1.40;;;30.60;27.90;;;;;;5028950;28;20040;-67
2021/06/09 08:36:15;;;;;;;2.88;1.73;;;30.80;28.00;;;;;;5029286;28;20049;-67
2021/06/09 08:38:43;;;;;;;4.25;1.70;;;30.70;28.10;;;;;;5028870;28;20052;-67
2021/06/09 08:41:10;;;;;;;5.10;2.63;;;30.90;28.60;;;;;;5028984;28;20040;-67
2021/06/09 08:43:38;;;;;;;9.77;5.80;;;31.50;28.30;;;;;;5028552;28;20436;-67
2021/06/09 08:46:07;;;;;;;8.18;2.20;;;32.00;27.80;;;;;;5028750;28;20518;-67
2021/06/09 08:48:37;;;;;;;1.80;1.50;;;32.90;27.50;;;;;;5028571;28;20037;-67
2021/06/09 08:51:06;;;;;;;5.72;2.03;;;33.20;27.40;;;;;;5028413;28;20092;-68
2021/06/09 08:53:34;;;;;;;6.85;2.03;;;33.50;27.40;;;;;;5028513;28;20032;-67
2021/06/09 08:56:00;;;;;;;7.10;1.95;;;33.60;27.90;;;;;;5028824;28;20033;-67
2021/06/09 08:58:27;;;;;;;2.50;1.98;;;33.70;29.00;;;;;;5028408;28;20529;-66
2021/06/09 09:00:53;;;;;;;3.42;1.88;;;33.40;28.50;;;;;;5028749;28;20112;-67
2021/06/09 09:03:18;;;;;;;2.70;1.60;;;33.10;28.00;;;;;;5027444;28;20108;-67
2021/06/09 09:05:44;;;;;;;4.85;1.63;;;33.10;27.80;;;;;;5028580;28;20077;-66
2021/06/09 09:08:10;;;;;;;11.13;2.17;;;33.30;28.30;;;;;;5028574;28;20493;-68
2021/06/09 09:10:36;;;;;;;4.22;1.52;;;33.60;27.20;;;;;;5028249;28;20065;-68
2021/06/09 09:13:03;;;;;;;3.00;1.92;;;33.40;28.10;;;;;;5027312;28;20030;-68
2021/06/09 09:15:29;;;;;;;4.32;2.30;;;33.60;28.00;;;;;;5028132;28;20457;-67
2021/06/09 09:17:59;;;;;;;3.67;2.20;;;34.00;27.50;;;;;;5027702;28;20026;-66
2021/06/09 09:20:31;;;;;;;7.45;1.90;;;34.20;26.60;;;;;;5028174;28;20120;-67
2021/06/09 09:22:58;;;;;;;5.05;2.22;;;34.10;27.20;;;;;;5028434;28;20079;-67
2021/06/09 09:25:27;;;;;;;4.53;1.92;;;34.30;25.80;;;;;;5027812;28;20065;-66
2021/06/09 09:28:05;;;;;;;2.75;1.98;;;34.30;26.60;;;;;;5028537;28;20433;-67
2021/06/09 09:30:33;;;;;;;9.50;2.17;;;34.40;26.90;;;;;;5026857;28;20414;-68
2021/06/09 09:32:58;;;;;;;4.90;2.50;;;34.60;25.10;;;;;;5027395;28;20025;-69
2021/06/09 09:35:33;;;;;;;11.02;2.38;;;34.40;25.50;;;;;;5028030;28;20053;-67
2021/06/09 09:38:28;;;;;;;8.03;1.93;;;34.10;25.90;;;;;;5026338;28;20037;-67
2021/06/09 09:41:30;;;;;;;4.00;2.78;;;34.10;25.90;;;;;;5028035;28;20635;-67
2021/06/09 09:43:59;;;;;;;3.90;2.63;;;33.70;26.10;;;;;;5027473;28;20120;-68
2021/06/09 09:46:39;;;;;;;4.82;2.55;;;33.70;27.40;;;;;;5026646;28;20065;-67
2021/06/09 09:49:18;;;;;;;8.85;1.80;;;34.00;26.70;;;;;;5027153;28;20457;-67
2021/06/09 09:51:55;;;;;;;3.80;2.30;;;34.40;26.10;;;;;;5025900;28;20029;-67
2021/06/09 09:54:31;;;;;;;4.65;2.40;;;34.60;26.10;;;;;;5027618;28;20076;-68
2021/06/09 09:56:59;;;;;;;5.45;2.17;;;34.60;25.80;;;;;;5027724;28;20018;-67
2021/06/09 09:59:27;;;;;;;8.80;2.28;;;34.40;26.30;;;;;;5025901;28;20064;-67
2021/06/09 10:01:54;;;;;;;7.18;2.30;;;34.00;27.00;;;;;;5025971;28;20560;-66
2021/06/09 10:04:24;;;;;;;6.82;2.25;;;33.60;26.20;;;;;;5027589;28;20387;-66
2021/06/09 10:06:51;;;;;;;7.03;1.95;;;32.90;26.60;;;;;;5027534;28;20036;-67
2021/06/09 10:09:19;;;;;;;7.07;2.28;;;32.30;27.90;;;;;;5027468;28;20021;-66
2021/06/09 10:11:52;;;;;;;3.20;2.00;;;32.10;29.50;;;;;;5027340;28;20025;-67
2021/06/09 10:14:31;;;;;;;3.45;2.08;;;31.90;28.70;;;;;;5027191;28;20497;-66
2021/06/09 10:17:12;;;;;;;3.08;2.15;;;31.80;29.40;;;;;;5027026;28;20505;-66
2021/06/09 10:19:47;;;;;;;8.15;2.10;;;31.60;30.20;;;;;;5026741;28;20410;-67
2021/06/09 10:22:20;;;;;;;6.07;2.50;;;31.20;29.90;;;;;;5026897;28;20516;-66
2021/06/09 10:24:53;;;;;;;10.18;2.67;;;31.10;31.60;;;;;;5027168;28;20069;-65
2021/06/09 10:27:49;;;;;;;3.10;2.00;;;31.20;31.70;;;;;;5026784;28;20025;-67
2021/06/09 10:30:18;;;;;;;7.53;2.17;;;31.20;32.60;;;;;;5027060;28;20056;-68
2021/06/09 10:32:57;;;;;;;6.53;2.38;;;31.10;31.20;;;;;;5026104;28;20594;-67
2021/06/09 10:35:28;;;;;;;13.70;2.90;;;30.90;31.30;;;;;;5026850;28;20052;-67
2021/06/09 10:37:54;;;;;;;3.75;1.90;;;30.70;31.20;;;;;;5025229;28;20232;-66
2021/06/09 10:40:25;;;;;;;3.17;2.05;;;30.50;32.20;;;;;;5026825;28;20108;-67
2021/06/09 10:42:54;;;;;;;10.13;2.22;;;30.40;31.40;;;;;;5026584;28;20030;-67
2021/06/09 10:45:21;;;;;;;10.50;2.50;;;30.10;31.30;;;;;;5026869;28;20053;-67
2021/06/09 10:47:47;;;;;;;2.92;2.22;;;30.10;32.40;;;;;;5026329;28;20112;-67
2021/06/09 10:50:15;;;;;;;7.93;2.17;;;30.20;31.90;;;;;;5026710;28;20096;-68
2021/06/09 10:52:41;;;;;;;3.78;2.63;;;30.10;32.80;;;;;;5026367;28;20032;-68
2021/06/09 10:55:09;;;;;;;2.95;2.08;;;30.00;31.70;;;;;;5026531;28;20369;-68
2021/06/09 10:57:36;;;;;;;10.73;2.45;;;29.90;30.50;;;;;;5026181;28;20056;-68
2021/06/09 11:00:03;;;;;;;6.70;2.30;;;30.10;31.20;;;;;;5026644;28;20109;-67
2021/06/09 11:02:29;;;;;;;4.60;2.33;;;30.20;31.60;;;;;;5026107;28;20460;-68
2021/06/09 11:05:00;;;;;;;7.22;2.30;;;30.50;31.40;;;;;;5026541;28;20037;-67
2021/06/09 11:07:32;;;;;;;9.15;2.50;;;30.50;30.10;;;;;;5026063;28;20022;-68
2021/06/09 11:10:00;;;;;;;4.60;2.65;;;30.30;31.00;;;;;;5026541;28;20112;-67
2021/06/09 11:12:31;;;;;;;5.10;1.98;;;30.30;31.40;;;;;;5026484;28;20096;-68
2021/06/09 11:15:07;;;;;;;7.90;2.30;;;30.60;32.40;;;;;;5024672;28;20842;-66
2021/06/09 11:17:46;;;;;;;4.78;2.60;;;30.70;30.70;;;;;;5025853;28;20821;-68
2021/06/09 11:20:30;;;;;;;2.53;2.08;;;30.80;32.10;;;;;;5024920;28;20029;-67
2021/06/09 11:22:57;;;;;;;4.38;2.40;;;30.40;30.80;;;;;;5025989;28;20059;-67
2021/06/09 11:25:39;;;;;;;3.60;2.28;;;30.00;30.80;;;;;;5025193;28;20045;-67
2021/06/09 11:28:06;;;;;;;6.35;2.80;;;29.60;32.00;;;;;;5026189;28;20029;-68
2021/06/09 11:30:32;;;;;;;5.05;2.40;;;29.40;32.10;;;;;;5026454;28;20093;-67
2021/06/09 11:33:00;;;;;;;9.35;2.85;;;29.10;32.40;;;;;;5025295;28;20052;-67
2021/06/09 11:35:41;;;;;;;2.90;1.98;;;28.90;32.20;;;;;;5025558;28;20518;-68
2021/06/09 11:38:13;;;;;;;5.60;2.95;;;28.80;33.20;;;;;;5025837;28;20090;-67
2021/06/09 11:40:53;;;;;;;3.20;2.50;;;28.90;33.60;;;;;;5025849;28;20033;-67
2021/06/09 11:43:41;;;;;;;5.78;2.38;;;29.30;33.70;;;;;;5027722;28;20029;-67
2021/06/09 11:46:09;;;;;;;8.35;2.58;;;29.80;33.50;;;;;;5028294;28;20041;-67
2021/06/09 11:48:36;;;;;;;3.22;2.45;;;30.10;32.60;;;;;;5029679;28;20064;-68
2021/06/09 11:51:19;;;;;;;10.95;2.28;;;30.30;31.10;;;;;;5030045;28;20099;-68
2021/06/09 11:53:47;;;;;;;4.93;2.60;;;30.60;31.40;;;;;;5030038;28;20025;-67
2021/06/09 11:56:22;;;;;;;3.65;2.30;;;30.80;31.50;;;;;;5029381;28;20026;-67
2021/06/09 11:59:22;;;;;;;3.40;2.40;;;31.00;31.80;;;;;;5029511;28;20596;-68
2021/06/09 12:01:47;;;;;;;5.72;2.40;;;31.10;31.00;;;;;;5027753;28;20037;-68
2021/06/09 12:04:21;;;;;;;3.20;2.22;;;31.20;30.20;;;;;;5029898;28;20381;-67
2021/06/09 12:07:17;;;;;;;5.47;2.63;;;31.30;30.70;;;;;;5029815;28;20060;-67
2021/06/09 12:09:44;;;;;;;4.70;2.88;;;31.60;30.70;;;;;;5028504;28;20340;-68
2021/06/09 12:12:14;;;;;;;3.83;2.50;;;31.60;29.50;;;;;;5029237;28;20037;-68
2021/06/09 12:14:45;;;;;;;2.95;2.10;;;31.70;29.60;;;;;;5029157;28;20041;-68
2021/06/09 12:17:11;;;;;;;4.50;2.08;;;31.70;29.80;;;;;;5028495;28;20029;-67
2021/06/09 12:19:48;;;;;;;4.40;2.17;;;31.80;29.70;;;;;;5029674;28;20037;-68
2021/06/09 12:22:17;;;;;;;3.97;1.95;;;32.00;29.80;;;;;;5029205;28;20021;-67
2021/06/09 12:24:53;;;;;;;3.47;2.28;;;32.10;29.80;;;;;;5029325;28;20418;-68
2021/06/09 12:27:19;;;;;;;7.90;2.40;;;32.00;28.80;;;;;;5028992;28;20481;-67
2021/06/09 12:29:45;;;;;;;5.05;2.40;;;31.90;28.00;;;;;;5029248;28;20061;-67
2021/06/09 12:32:19;;;;;;;3.13;2.40;;;31.60;29.10;;;;;;5028558;28;20037;-68
2021/06/09 12:35:04;;;;;;;9.25;2.38;;;31.40;29.80;;;;;;5029251;28;20537;-67
2021/06/09 12:37:30;;;;;;;3.67;2.00;;;31.00;28.20;;;;;;5029163;28;20026;-67
2021/06/09 12:40:09;;;;;;;6.47;2.28;;;30.80;30.10;;;;;;5029472;28;20026;-67
2021/06/09 12:42:36;;;;;;;3.17;2.00;;;30.60;30.50;;;;;;5029159;28;20099;-67
2021/06/09 12:45:08;;;;;;;7.57;2.13;;;30.60;31.90;;;;;;5028616;28;20030;-68
2021/06/09 12:47:40;;;;;;;3.30;2.08;;;30.90;31.30;;;;;;5028824;28;20104;-68
2021/06/09 12:50:14;;;;;;;3.45;2.33;;;31.10;29.70;;;;;;5028801;28;20033;-67
2021/06/09 12:52:41;;;;;;;4.75;2.28;;;31.20;30.00;;;;;;5029111;28;20022;-68
2021/06/09 12:55:20;;;;;;;8.88;2.15;;;31.30;29.10;;;;;;5027958;28;20017;-68
2021/06/09 12:57:46;;;;;;;6.70;2.25;;;31.10;29.00;;;;;;5028512;28;20035;-67
2021/06/09 13:00:30;;;;;;;10.93;2.00;;;30.80;30.00;;;;;;5028386;28;20033;-67